Terminal Aerodrome Forecast
Issued by NWS

Home | Current Version | Previous Version | Text Only | Print | Product List | Glossary Off
Versions: 1 2 3 4 5 6 7 8 9 10 11 12 13 14 15 16

000
FTUS43 KGRB 251100
TAFMTW
TAF
KMTW 251125Z 2512/2612 34006KT P6SM BKN140
     FM251800 35006KT P6SM SCT035 BKN080
     FM252200 02008KT P6SM SCT030 OVC070
      TEMPO 2604/2608 5SM -SN BKN025
     FM260900 01010KT P6SM SCT030 BKN120=

USA.gov is the U.S. government's official web portal to all federal, state and local government web resources and services.